Thunder radar more information blitzortung!


Radar de pluja more information rain snow radar


Visita la nostra xarxa de llocs de meteo:

Template documentation
and downloads

And another site



Wind From: 11-12-2017 11:00 Until: 14:59 warning for: Wind Level: Yellow info button

Pagina Historial Weather Underground text

Diari Resum Octubre 9, 2017 Unitats:  Tant    Imperial   Mètric
« Previous Dia
SegĂźent Dia »
Diari Setmana Mensual Anual Personalitzada
  Maxima: Minima: Media:
Temperatura: 77.2 °F /  25.1 °C 53.8 °F /  12.1 °C 64 °F /  17.8 °C
Punt de rosada: 59 °F /  15.0 °C 47.8 °F /  8.8 °C 54 °F /  12.2 °C
Humitat: 82 % 51 % 71 %
Wind Speed: 10 mph /  16.1 km/h - 2.3 mph /  3.7 km/h
RĂ fegues de vent: 10 mph /  16.1 km/h - -
Vent:- - SSE
Pression baro: 30.2 in /  1021.9 hPa 30.1 in /  1018.8 hPa -
Precipitacions: 0 in /  0.0 mm    
Historical Graphs
 
 
Dades de taula per Octubre 9, 2017
Temps Temperatura Punt de rosada Pression baro Vent Wind Speed RĂ fegues de vent Humitat Rainfall Rate (Hourly)
00:03 61.7 °F /  16.5 °C 54.3 °F /  12.4 °C 30.2 in /  1020.9 hPa Calm     77 % 0 in /  0.0 mm
00:08 61.5 °F /  16.4 °C 54.7 °F /  12.6 °C 30.2 in /  1020.9 hPa Calm     78 % 0 in /  0.0 mm
00:13 61.3 °F /  16.3 °C 54.1 °F /  12.3 °C 30.2 in /  1020.9 hPa Calm     77 % 0 in /  0.0 mm
00:18 61.3 °F /  16.3 °C 54.1 °F /  12.3 °C 30.2 in /  1020.9 hPa Calm     77 % 0 in /  0.0 mm
00:23 61.2 °F /  16.2 °C 54 °F /  12.2 °C 30.2 in /  1020.9 hPa Calm     77 % 0 in /  0.0 mm
00:28 61.2 °F /  16.2 °C 54.1 °F /  12.3 °C 30.2 in /  1020.9 hPa Calm     78 % 0 in /  0.0 mm
00:33 61 °F /  16.1 °C 54.1 °F /  12.3 °C 30.2 in /  1020.9 hPa Calm     78 % 0 in /  0.0 mm
00:38 60.8 °F /  16.0 °C 54 °F /  12.2 °C 30.2 in /  1020.9 hPa Calm     78 % 0 in /  0.0 mm
00:43 60.6 °F /  15.9 °C 53.8 °F /  12.1 °C 30.2 in /  1020.9 hPa Calm     78 % 0 in /  0.0 mm
00:48 60.4 °F /  15.8 °C 53.4 °F /  11.9 °C 30.2 in /  1020.9 hPa Calm     78 % 0 in /  0.0 mm
00:53 60.3 °F /  15.7 °C 53.4 °F /  11.9 °C 30.2 in /  1020.9 hPa Calm     78 % 0 in /  0.0 mm
00:58 60.1 °F /  15.6 °C 53.2 °F /  11.8 °C 30.2 in /  1020.9 hPa Calm     78 % 0 in /  0.0 mm
01:03 60.1 °F /  15.6 °C 53.2 °F /  11.8 °C 30.2 in /  1020.9 hPa Calm     78 % 0 in /  0.0 mm
01:08 59.9 °F /  15.5 °C 53.1 °F /  11.7 °C 30.2 in /  1020.9 hPa Calm     78 % 0 in /  0.0 mm
01:14 59.7 °F /  15.4 °C 52.9 °F /  11.6 °C 30.1 in /  1019.9 hPa Calm     78 % 0 in /  0.0 mm
01:19 59.7 °F /  15.4 °C 53.2 °F /  11.8 °C 30.1 in /  1019.9 hPa Calm     79 % 0 in /  0.0 mm
01:24 59.5 °F /  15.3 °C 53.1 °F /  11.7 °C 30.1 in /  1019.9 hPa Calm     79 % 0 in /  0.0 mm
01:29 59.7 °F /  15.4 °C 52.9 °F /  11.6 °C 30.1 in /  1019.9 hPa Calm     78 % 0 in /  0.0 mm
01:34 59.5 °F /  15.3 °C 53.1 °F /  11.7 °C 30.1 in /  1019.9 hPa Calm     79 % 0 in /  0.0 mm
01:39 59.5 °F /  15.3 °C 53.1 °F /  11.7 °C 30.1 in /  1019.9 hPa Calm     79 % 0 in /  0.0 mm
01:44 59.5 °F /  15.3 °C 52.7 °F /  11.5 °C 30.1 in /  1019.9 hPa Calm     78 % 0 in /  0.0 mm
01:49 59.4 °F /  15.2 °C 52.5 °F /  11.4 °C 30.1 in /  1019.9 hPa Calm     78 % 0 in /  0.0 mm
01:54 59.4 °F /  15.2 °C 52.9 °F /  11.6 °C 30.1 in /  1019.9 hPa Calm     79 % 0 in /  0.0 mm
01:59 59.4 °F /  15.2 °C 52.5 °F /  11.4 °C 30.1 in /  1019.9 hPa Calm     78 % 0 in /  0.0 mm
02:04 59.2 °F /  15.1 °C 52.7 °F /  11.5 °C 30.1 in /  1019.9 hPa Calm     79 % 0 in /  0.0 mm
02:09 59 °F /  15.0 °C 52.5 °F /  11.4 °C 30.1 in /  1019.9 hPa East 1.4 mph /  2.3 km/h 1.4 mph /  2.3 km/h 79 % 0 in /  0.0 mm
02:14 58.8 °F /  14.9 °C 52.3 °F /  11.3 °C 30.1 in /  1019.9 hPa East 2.3 mph /  3.7 km/h 2.3 mph /  3.7 km/h 79 % 0 in /  0.0 mm
02:19 58.6 °F /  14.8 °C 52.2 °F /  11.2 °C 30.1 in /  1019.9 hPa ENE 3.5 mph /  5.6 km/h 3.5 mph /  5.6 km/h 79 % 0 in /  0.0 mm
02:24 58.3 °F /  14.6 °C 51.8 °F /  11.0 °C 30.1 in /  1019.9 hPa East 3.5 mph /  5.6 km/h 3.5 mph /  5.6 km/h 79 % 0 in /  0.0 mm
02:29 58.3 °F /  14.6 °C 51.8 °F /  11.0 °C 30.1 in /  1019.9 hPa East 2.4 mph /  3.9 km/h 2.6 mph /  4.2 km/h 79 % 0 in /  0.0 mm
02:34 58.1 °F /  14.5 °C 51.6 °F /  10.9 °C 30.1 in /  1019.9 hPa ENE 3.5 mph /  5.6 km/h 3.5 mph /  5.6 km/h 79 % 0 in /  0.0 mm
02:39 57.7 °F /  14.3 °C 51.3 °F /  10.7 °C 30.1 in /  1019.9 hPa ESE 2.3 mph /  3.7 km/h 2.3 mph /  3.7 km/h 79 % 0 in /  0.0 mm
02:44 57.4 °F /  14.1 °C 51.3 °F /  10.7 °C 30.1 in /  1019.9 hPa ESE 2.3 mph /  3.7 km/h 2.3 mph /  3.7 km/h 80 % 0 in /  0.0 mm
02:49 57.2 °F /  14.0 °C 50.7 °F /  10.4 °C 30.1 in /  1019.9 hPa ENE 2.3 mph /  3.7 km/h 2.3 mph /  3.7 km/h 79 % 0 in /  0.0 mm
02:54 57 °F /  13.9 °C 50.5 °F /  10.3 °C 30.1 in /  1019.9 hPa NE 2.3 mph /  3.7 km/h 2.3 mph /  3.7 km/h 79 % 0 in /  0.0 mm
02:59 56.8 °F /  13.8 °C 50.4 °F /  10.2 °C 30.2 in /  1020.9 hPa NE 1.2 mph /  1.9 km/h   79 % 0 in /  0.0 mm
03:04 56.8 °F /  13.8 °C 50.7 °F /  10.4 °C 30.2 in /  1020.9 hPa Calm     80 % 0 in /  0.0 mm
03:09 56.7 °F /  13.7 °C 50.5 °F /  10.3 °C 30.2 in /  1020.9 hPa Calm     80 % 0 in /  0.0 mm
03:14 56.5 °F /  13.6 °C 50 °F /  10.0 °C 30.2 in /  1020.9 hPa NE 2.3 mph /  3.7 km/h 2.3 mph /  3.7 km/h 79 % 0 in /  0.0 mm
03:19 56.3 °F /  13.5 °C 49.8 °F /  9.9 °C 30.2 in /  1020.9 hPa SW 2.3 mph /  3.7 km/h 2.3 mph /  3.7 km/h 79 % 0 in /  0.0 mm
03:24 56.1 °F /  13.4 °C 50 °F /  10.0 °C 30.2 in /  1020.9 hPa Calm     80 % 0 in /  0.0 mm
03:29 55.9 °F /  13.3 °C 49.8 °F /  9.9 °C 30.1 in /  1019.9 hPa SW 0.9 mph /  1.4 km/h   80 % 0 in /  0.0 mm
03:34 55.9 °F /  13.3 °C 49.8 °F /  9.9 °C 30.1 in /  1019.9 hPa Calm     80 % 0 in /  0.0 mm
03:39 55.9 °F /  13.3 °C 49.8 °F /  9.9 °C 30.1 in /  1019.9 hPa Calm     80 % 0 in /  0.0 mm
03:44 55.9 °F /  13.3 °C 49.8 °F /  9.9 °C 30.1 in /  1019.9 hPa SW 1.2 mph /  1.9 km/h 1.2 mph /  1.9 km/h 80 % 0 in /  0.0 mm
03:49 55.8 °F /  13.2 °C 49.6 °F /  9.8 °C 30.1 in /  1019.9 hPa Calm     80 % 0 in /  0.0 mm
03:54 55.6 °F /  13.1 °C 49.5 °F /  9.7 °C 30.1 in /  1019.9 hPa SW 1.2 mph /  1.9 km/h   80 % 0 in /  0.0 mm
03:59 55.4 °F /  13.0 °C 49.3 °F /  9.6 °C 30.1 in /  1019.9 hPa Calm     80 % 0 in /  0.0 mm
04:04 55.4 °F /  13.0 °C 49.3 °F /  9.6 °C 30.1 in /  1019.9 hPa SW 2.3 mph /  3.7 km/h   80 % 0 in /  0.0 mm
04:09 55.2 °F /  12.9 °C 49.3 °F /  9.6 °C 30.1 in /  1019.9 hPa SW 2.4 mph /  3.9 km/h 2.4 mph /  3.9 km/h 80 % 0 in /  0.0 mm
04:14 55.2 °F /  12.9 °C 48.7 °F /  9.3 °C 30.1 in /  1019.9 hPa SW 2 mph /  3.2 km/h 2 mph /  3.2 km/h 79 % 0 in /  0.0 mm
04:19 55.4 °F /  13.0 °C 48.9 °F /  9.4 °C 30.1 in /  1019.9 hPa Calm     79 % 0 in /  0.0 mm
04:24 55.4 °F /  13.0 °C 49.3 °F /  9.6 °C 30.1 in /  1019.9 hPa WSW 2.3 mph /  3.7 km/h   80 % 0 in /  0.0 mm
04:29 55.4 °F /  13.0 °C 49.3 °F /  9.6 °C 30.1 in /  1019.9 hPa WSW 1.2 mph /  1.9 km/h 1.2 mph /  1.9 km/h 80 % 0 in /  0.0 mm
04:34 55.4 °F /  13.0 °C 49.3 °F /  9.6 °C 30.1 in /  1019.9 hPa WSW 1.4 mph /  2.3 km/h 1.4 mph /  2.3 km/h 80 % 0 in /  0.0 mm
04:36 55.4 °F /  13.0 °C 49.3 °F /  9.6 °C 30.1 in /  1019.9 hPa WSW 1.2 mph /  1.9 km/h   80 % 0 in /  0.0 mm
04:41 55.6 °F /  13.1 °C 49.5 °F /  9.7 °C 30.1 in /  1019.9 hPa WSW 1.2 mph /  1.9 km/h 1.2 mph /  1.9 km/h 80 % 0 in /  0.0 mm
04:46 55.6 °F /  13.1 °C 49.5 °F /  9.7 °C 30.1 in /  1019.9 hPa SW 2.3 mph /  3.7 km/h 2.3 mph /  3.7 km/h 80 % 0 in /  0.0 mm
04:51 55.6 °F /  13.1 °C 49.5 °F /  9.7 °C 30.1 in /  1019.9 hPa SW 1.2 mph /  1.9 km/h   80 % 0 in /  0.0 mm
04:56 55.6 °F /  13.1 °C 49.5 °F /  9.7 °C 30.1 in /  1019.9 hPa Calm     80 % 0 in /  0.0 mm
05:01 55.4 °F /  13.0 °C 49.3 °F /  9.6 °C 30.1 in /  1019.9 hPa Calm     80 % 0 in /  0.0 mm
05:06 55.4 °F /  13.0 °C 49.3 °F /  9.6 °C 30.1 in /  1019.9 hPa Calm     80 % 0 in /  0.0 mm
05:12 55.4 °F /  13.0 °C 49.3 °F /  9.6 °C 30.1 in /  1019.9 hPa Calm     80 % 0 in /  0.0 mm
05:17 55.2 °F /  12.9 °C 49.3 °F /  9.6 °C 30.1 in /  1019.9 hPa Calm     80 % 0 in /  0.0 mm
05:19 55.2 °F /  12.9 °C 49.3 °F /  9.6 °C 30.1 in /  1019.9 hPa Calm     80 % 0 in /  0.0 mm
05:22 55 °F /  12.8 °C 48.9 °F /  9.4 °C 30.1 in /  1019.9 hPa Calm     80 % 0 in /  0.0 mm
05:23 55 °F /  12.8 °C 48.9 °F /  9.4 °C 30.1 in /  1019.9 hPa Calm     80 % 0 in /  0.0 mm
05:24 55 °F /  12.8 °C 48.9 °F /  9.4 °C 30.1 in /  1019.9 hPa Calm     80 % 0 in /  0.0 mm
05:26 55 °F /  12.8 °C 48.9 °F /  9.4 °C 30.1 in /  1019.9 hPa Calm     80 % 0 in /  0.0 mm
05:27 54.9 °F /  12.7 °C 48.7 °F /  9.3 °C 30.1 in /  1019.9 hPa Calm     80 % 0 in /  0.0 mm
05:32 54.9 °F /  12.7 °C 48.7 °F /  9.3 °C 30.1 in /  1019.9 hPa Calm     80 % 0 in /  0.0 mm
05:35 54.9 °F /  12.7 °C 48.7 °F /  9.3 °C 30.1 in /  1019.9 hPa Calm     80 % 0 in /  0.0 mm
05:40 54.9 °F /  12.7 °C 48.7 °F /  9.3 °C 30.1 in /  1019.9 hPa SW 2.3 mph /  3.7 km/h 2.3 mph /  3.7 km/h 80 % 0 in /  0.0 mm
05:42 54.9 °F /  12.7 °C 48.7 °F /  9.3 °C 30.1 in /  1019.9 hPa SW 1.4 mph /  2.3 km/h 1.4 mph /  2.3 km/h 80 % 0 in /  0.0 mm
05:47 54.9 °F /  12.7 °C 48.7 °F /  9.3 °C 30.1 in /  1019.9 hPa Calm     80 % 0 in /  0.0 mm
05:52 54.9 °F /  12.7 °C 49.1 °F /  9.5 °C 30.1 in /  1019.9 hPa Calm     81 % 0 in /  0.0 mm
05:57 54.9 °F /  12.7 °C 48.7 °F /  9.3 °C 30.1 in /  1019.9 hPa Calm     80 % 0 in /  0.0 mm
06:02 54.9 °F /  12.7 °C 48.7 °F /  9.3 °C 30.1 in /  1019.9 hPa Calm     80 % 0 in /  0.0 mm
06:07 55 °F /  12.8 °C 48.9 °F /  9.4 °C 30.1 in /  1019.9 hPa WSW 1.6 mph /  2.6 km/h 1.6 mph /  2.6 km/h 80 % 0 in /  0.0 mm
06:12 55.2 °F /  12.9 °C 49.3 °F /  9.6 °C 30.1 in /  1019.9 hPa WSW 1.2 mph /  1.9 km/h 1.2 mph /  1.9 km/h 80 % 0 in /  0.0 mm
06:17 55.2 °F /  12.9 °C 49.3 °F /  9.6 °C 30.1 in /  1019.9 hPa Calm     80 % 0 in /  0.0 mm
06:22 55 °F /  12.8 °C 48.9 °F /  9.4 °C 30.1 in /  1019.9 hPa WSW 2.3 mph /  3.7 km/h 2.3 mph /  3.7 km/h 80 % 0 in /  0.0 mm
06:27 54.9 °F /  12.7 °C 48.7 °F /  9.3 °C 30.1 in /  1019.9 hPa Calm     80 % 0 in /  0.0 mm
06:32 54.7 °F /  12.6 °C 48.6 °F /  9.2 °C 30.1 in /  1019.9 hPa Calm     80 % 0 in /  0.0 mm
06:37 54.7 °F /  12.6 °C 48.6 °F /  9.2 °C 30.1 in /  1019.9 hPa Calm     80 % 0 in /  0.0 mm
06:42 54.9 °F /  12.7 °C 49.1 °F /  9.5 °C 30.1 in /  1019.9 hPa Calm     81 % 0 in /  0.0 mm
06:44 54.9 °F /  12.7 °C 49.1 °F /  9.5 °C 30.1 in /  1019.9 hPa Calm     81 % 0 in /  0.0 mm
06:49 54.9 °F /  12.7 °C 48.7 °F /  9.3 °C 30.1 in /  1019.9 hPa Calm     80 % 0 in /  0.0 mm
06:54 54.7 °F /  12.6 °C 48.6 °F /  9.2 °C 30.1 in /  1019.9 hPa Calm     80 % 0 in /  0.0 mm
06:59 54.7 °F /  12.6 °C 48.9 °F /  9.4 °C 30.1 in /  1019.9 hPa Calm     81 % 0 in /  0.0 mm
07:09 54.7 °F /  12.6 °C 48.6 °F /  9.2 °C 30.1 in /  1019.9 hPa Calm     80 % 0 in /  0.0 mm
07:14 54.7 °F /  12.6 °C 48.9 °F /  9.4 °C 30.1 in /  1019.9 hPa Calm     81 % 0 in /  0.0 mm
07:19 54.9 °F /  12.7 °C 49.1 °F /  9.5 °C 30.1 in /  1019.9 hPa North 2 mph /  3.2 km/h 2 mph /  3.2 km/h 81 % 0 in /  0.0 mm
07:24 54.5 °F /  12.5 °C 48.7 °F /  9.3 °C 30.1 in /  1019.9 hPa NE 1.4 mph /  2.3 km/h 1.6 mph /  2.6 km/h 81 % 0 in /  0.0 mm
07:29 54.5 °F /  12.5 °C 48.7 °F /  9.3 °C 30.1 in /  1019.9 hPa NE 1.6 mph /  2.6 km/h 1.6 mph /  2.6 km/h 81 % 0 in /  0.0 mm
07:39 54.5 °F /  12.5 °C 48.7 °F /  9.3 °C 30.1 in /  1019.9 hPa NE 2.3 mph /  3.7 km/h 2.3 mph /  3.7 km/h 81 % 0 in /  0.0 mm
07:44 54.3 °F /  12.4 °C 48.6 °F /  9.2 °C 30.1 in /  1019.9 hPa North 1.2 mph /  1.9 km/h   81 % 0 in /  0.0 mm
07:49 54.1 °F /  12.3 °C 48 °F /  8.9 °C 30.1 in /  1019.9 hPa WNW 1.6 mph /  2.6 km/h 1.6 mph /  2.6 km/h 80 % 0 in /  0.0 mm
07:54 54 °F /  12.2 °C 47.8 °F /  8.8 °C 30.1 in /  1019.9 hPa WSW 2.3 mph /  3.7 km/h 2.3 mph /  3.7 km/h 80 % 0 in /  0.0 mm
07:59 53.8 °F /  12.1 °C 48 °F /  8.9 °C 30.1 in /  1019.9 hPa Calm     81 % 0 in /  0.0 mm
08:04 53.8 °F /  12.1 °C 48 °F /  8.9 °C 30.1 in /  1019.9 hPa Calm     81 % 0 in /  0.0 mm
08:09 53.8 °F /  12.1 °C 48 °F /  8.9 °C 30.1 in /  1019.9 hPa Calm     81 % 0 in /  0.0 mm
08:14 53.8 °F /  12.1 °C 48 °F /  8.9 °C 30.1 in /  1019.9 hPa SW 2.3 mph /  3.7 km/h 2.3 mph /  3.7 km/h 81 % 0 in /  0.0 mm
08:19 53.8 °F /  12.1 °C 48 °F /  8.9 °C 30.1 in /  1019.9 hPa Calm     81 % 0 in /  0.0 mm
08:24 53.8 °F /  12.1 °C 48 °F /  8.9 °C 30.1 in /  1019.9 hPa SW 2 mph /  3.2 km/h 2 mph /  3.2 km/h 81 % 0 in /  0.0 mm
08:29 53.8 °F /  12.1 °C 48 °F /  8.9 °C 30.1 in /  1019.9 hPa SW 2.6 mph /  4.2 km/h 2.6 mph /  4.2 km/h 81 % 0 in /  0.0 mm
08:34 54 °F /  12.2 °C 48.4 °F /  9.1 °C 30.1 in /  1019.9 hPa WSW 2 mph /  3.2 km/h 2 mph /  3.2 km/h 81 % 0 in /  0.0 mm
08:39 54.1 °F /  12.3 °C 48.4 °F /  9.1 °C 30.1 in /  1019.9 hPa SW 2.4 mph /  3.9 km/h 2.4 mph /  3.9 km/h 81 % 0 in /  0.0 mm
08:44 54.1 °F /  12.3 °C 48.4 °F /  9.1 °C 30.1 in /  1019.9 hPa SW 2.3 mph /  3.7 km/h 2.3 mph /  3.7 km/h 81 % 0 in /  0.0 mm
08:49 54.3 °F /  12.4 °C 48.6 °F /  9.2 °C 30.1 in /  1019.9 hPa WSW 2.3 mph /  3.7 km/h 2.3 mph /  3.7 km/h 81 % 0 in /  0.0 mm
08:54 54.7 °F /  12.6 °C 49.3 °F /  9.6 °C 30.1 in /  1019.9 hPa WSW 1.6 mph /  2.6 km/h 1.6 mph /  2.6 km/h 82 % 0 in /  0.0 mm
08:59 55 °F /  12.8 °C 49.3 °F /  9.6 °C 30.2 in /  1020.9 hPa WSW 1.4 mph /  2.3 km/h   81 % 0 in /  0.0 mm
09:04 55.8 °F /  13.2 °C 50.4 °F /  10.2 °C 30.2 in /  1020.9 hPa SW 1.2 mph /  1.9 km/h 1.4 mph /  2.3 km/h 82 % 0 in /  0.0 mm
09:09 56.5 °F /  13.6 °C 50.7 °F /  10.4 °C 30.2 in /  1020.9 hPa SW 1.6 mph /  2.6 km/h 1.6 mph /  2.6 km/h 81 % 0 in /  0.0 mm
09:14 57.2 °F /  14.0 °C 51.1 °F /  10.6 °C 30.2 in /  1020.9 hPa ESE 1.4 mph /  2.3 km/h   80 % 0 in /  0.0 mm
09:19 58.3 °F /  14.6 °C 51.8 °F /  11.0 °C 30.2 in /  1020.9 hPa NE 1.4 mph /  2.3 km/h 1.4 mph /  2.3 km/h 79 % 0 in /  0.0 mm
09:24 58.6 °F /  14.8 °C 52.2 °F /  11.2 °C 30.2 in /  1020.9 hPa SSE 1.6 mph /  2.6 km/h   79 % 0 in /  0.0 mm
09:29 57.7 °F /  14.3 °C 50.9 °F /  10.5 °C 30.2 in /  1020.9 hPa WSW 2.3 mph /  3.7 km/h 2.3 mph /  3.7 km/h 78 % 0 in /  0.0 mm
09:34 58.5 °F /  14.7 °C 51.6 °F /  10.9 °C 30.2 in /  1020.9 hPa WSW 2.3 mph /  3.7 km/h 2.3 mph /  3.7 km/h 78 % 0 in /  0.0 mm
09:39 59 °F /  15.0 °C 52.2 °F /  11.2 °C 30.2 in /  1020.9 hPa South 1.2 mph /  1.9 km/h   78 % 0 in /  0.0 mm
09:44 59 °F /  15.0 °C 51.8 °F /  11.0 °C 30.2 in /  1021.9 hPa SW 2.3 mph /  3.7 km/h 2.3 mph /  3.7 km/h 77 % 0 in /  0.0 mm
09:49 58.8 °F /  14.9 °C 51.6 °F /  10.9 °C 30.2 in /  1021.9 hPa SW 1.2 mph /  1.9 km/h 1.6 mph /  2.6 km/h 77 % 0 in /  0.0 mm
09:54 59.9 °F /  15.5 °C 52.3 °F /  11.3 °C 30.2 in /  1021.9 hPa NE 1.4 mph /  2.3 km/h   76 % 0 in /  0.0 mm
09:59 60.4 °F /  15.8 °C 52.2 °F /  11.2 °C 30.2 in /  1020.9 hPa East 2.6 mph /  4.2 km/h 2.6 mph /  4.2 km/h 74 % 0 in /  0.0 mm
10:04 61 °F /  16.1 °C 52.3 °F /  11.3 °C 30.2 in /  1020.9 hPa NE 2.3 mph /  3.7 km/h 2.3 mph /  3.7 km/h 73 % 0 in /  0.0 mm
10:09 61.7 °F /  16.5 °C 53.1 °F /  11.7 °C 30.2 in /  1020.9 hPa NE 2.3 mph /  3.7 km/h 2.3 mph /  3.7 km/h 73 % 0 in /  0.0 mm
10:14 62.1 °F /  16.7 °C 52.5 °F /  11.4 °C 30.2 in /  1020.9 hPa NNE 2.3 mph /  3.7 km/h 2.3 mph /  3.7 km/h 71 % 0 in /  0.0 mm
10:19 62.8 °F /  17.1 °C 52.5 °F /  11.4 °C 30.2 in /  1020.9 hPa NNW 3.5 mph /  5.6 km/h 3.5 mph /  5.6 km/h 69 % 0 in /  0.0 mm
10:24 63.3 °F /  17.4 °C 52.5 °F /  11.4 °C 30.2 in /  1020.9 hPa East 2.4 mph /  3.9 km/h 2.4 mph /  3.9 km/h 68 % 0 in /  0.0 mm
10:29 63.9 °F /  17.7 °C 52.7 °F /  11.5 °C 30.2 in /  1021.9 hPa NE 3.1 mph /  5.0 km/h 3.1 mph /  5.0 km/h 67 % 0 in /  0.0 mm
10:34 64.4 °F /  18.0 °C 53.2 °F /  11.8 °C 30.2 in /  1021.9 hPa NE 1.2 mph /  1.9 km/h   67 % 0 in /  0.0 mm
10:39 64.8 °F /  18.2 °C 53.1 °F /  11.7 °C 30.2 in /  1021.9 hPa NNE 3.5 mph /  5.6 km/h 3.5 mph /  5.6 km/h 66 % 0 in /  0.0 mm
10:44 64.9 °F /  18.3 °C 53.2 °F /  11.8 °C 30.2 in /  1021.9 hPa NE 2.3 mph /  3.7 km/h 2.3 mph /  3.7 km/h 66 % 0 in /  0.0 mm
10:49 65.5 °F /  18.6 °C 53.4 °F /  11.9 °C 30.2 in /  1021.9 hPa East 2.4 mph /  3.9 km/h 2.4 mph /  3.9 km/h 65 % 0 in /  0.0 mm
10:54 65.3 °F /  18.5 °C 53.2 °F /  11.8 °C 30.2 in /  1021.9 hPa North 3.5 mph /  5.6 km/h 3.5 mph /  5.6 km/h 65 % 0 in /  0.0 mm
10:59 65.5 °F /  18.6 °C 53.1 °F /  11.7 °C 30.2 in /  1021.9 hPa ENE 4.6 mph /  7.4 km/h 4.6 mph /  7.4 km/h 64 % 0 in /  0.0 mm
11:04 65.1 °F /  18.4 °C 52.2 °F /  11.2 °C 30.2 in /  1021.9 hPa NNE 4.6 mph /  7.4 km/h 4.6 mph /  7.4 km/h 63 % 0 in /  0.0 mm
11:09 65.5 °F /  18.6 °C 52.5 °F /  11.4 °C 30.2 in /  1021.9 hPa NNE 5.8 mph /  9.3 km/h 5.8 mph /  9.3 km/h 63 % 0 in /  0.0 mm
11:14 65.7 °F /  18.7 °C 52.3 °F /  11.3 °C 30.2 in /  1021.9 hPa ENE 5.8 mph /  9.3 km/h 5.8 mph /  9.3 km/h 62 % 0 in /  0.0 mm
11:19 66 °F /  18.9 °C 52.5 °F /  11.4 °C 30.2 in /  1021.9 hPa NNE 3.5 mph /  5.6 km/h 3.5 mph /  5.6 km/h 62 % 0 in /  0.0 mm
11:24 66.9 °F /  19.4 °C 53.1 °F /  11.7 °C 30.2 in /  1021.9 hPa NE 5.8 mph /  9.3 km/h 5.8 mph /  9.3 km/h 61 % 0 in /  0.0 mm
11:29 66.7 °F /  19.3 °C 52.9 °F /  11.6 °C 30.2 in /  1021.9 hPa ENE 3.5 mph /  5.6 km/h 3.5 mph /  5.6 km/h 61 % 0 in /  0.0 mm
11:34 67.1 °F /  19.5 °C 52.7 °F /  11.5 °C 30.2 in /  1021.9 hPa NNE 4.6 mph /  7.4 km/h 4.6 mph /  7.4 km/h 60 % 0 in /  0.0 mm
11:39 66.7 °F /  19.3 °C 52.3 °F /  11.3 °C 30.2 in /  1021.9 hPa East 4.6 mph /  7.4 km/h 4.6 mph /  7.4 km/h 60 % 0 in /  0.0 mm
11:44 67.3 °F /  19.6 °C 52.9 °F /  11.6 °C 30.2 in /  1021.9 hPa NE 4.6 mph /  7.4 km/h 4.6 mph /  7.4 km/h 60 % 0 in /  0.0 mm
11:49 67.6 °F /  19.8 °C 53.2 °F /  11.8 °C 30.2 in /  1021.9 hPa NE 3.6 mph /  5.8 km/h 3.6 mph /  5.8 km/h 60 % 0 in /  0.0 mm
11:54 68.5 °F /  20.3 °C 53.6 °F /  12.0 °C 30.2 in /  1021.9 hPa NW 2.3 mph /  3.7 km/h 2.3 mph /  3.7 km/h 59 % 0 in /  0.0 mm
11:59 69.6 °F /  20.9 °C 54.1 °F /  12.3 °C 30.2 in /  1021.9 hPa WSW 3.5 mph /  5.6 km/h 3.5 mph /  5.6 km/h 58 % 0 in /  0.0 mm
12:02 69.6 °F /  20.9 °C 54.1 °F /  12.3 °C 30.2 in /  1021.9 hPa South 2.3 mph /  3.7 km/h 2.3 mph /  3.7 km/h 58 % 0 in /  0.0 mm
12:07 70.2 °F /  21.2 °C 54.7 °F /  12.6 °C 30.2 in /  1021.9 hPa ENE 3.5 mph /  5.6 km/h 3.5 mph /  5.6 km/h 58 % 0 in /  0.0 mm
12:12 70 °F /  21.1 °C 54.5 °F /  12.5 °C 30.2 in /  1021.9 hPa ESE 4.9 mph /  7.9 km/h 4.9 mph /  7.9 km/h 58 % 0 in /  0.0 mm
12:17 70.2 °F /  21.2 °C 54.7 °F /  12.6 °C 30.2 in /  1021.9 hPa SW 2.3 mph /  3.7 km/h 2.3 mph /  3.7 km/h 58 % 0 in /  0.0 mm
12:22 70.7 °F /  21.5 °C 55.2 °F /  12.9 °C 30.2 in /  1021.9 hPa North 4.6 mph /  7.4 km/h 4.6 mph /  7.4 km/h 58 % 0 in /  0.0 mm
12:27 71.2 °F /  21.8 °C 56.1 °F /  13.4 °C 30.2 in /  1021.9 hPa ENE 3.6 mph /  5.8 km/h 3.6 mph /  5.8 km/h 59 % 0 in /  0.0 mm
12:32 71.2 °F /  21.8 °C 56.1 °F /  13.4 °C 30.2 in /  1021.9 hPa East 4.6 mph /  7.4 km/h 4.6 mph /  7.4 km/h 59 % 0 in /  0.0 mm
12:37 71.8 °F /  22.1 °C 56.7 °F /  13.7 °C 30.2 in /  1021.9 hPa ESE 3.5 mph /  5.6 km/h 3.5 mph /  5.6 km/h 59 % 0 in /  0.0 mm
12:42 71.6 °F /  22.0 °C 56.5 °F /  13.6 °C 30.2 in /  1021.9 hPa ESE 4.6 mph /  7.4 km/h 4.6 mph /  7.4 km/h 59 % 0 in /  0.0 mm
12:47 72 °F /  22.2 °C 57.4 °F /  14.1 °C 30.2 in /  1021.9 hPa ESE 6.9 mph /  11.1 km/h 6.9 mph /  11.1 km/h 60 % 0 in /  0.0 mm
12:52 71.8 °F /  22.1 °C 56.1 °F /  13.4 °C 30.2 in /  1021.9 hPa ESE 6.2 mph /  10.0 km/h 6.2 mph /  10.0 km/h 58 % 0 in /  0.0 mm
12:57 72.1 °F /  22.3 °C 56.5 °F /  13.6 °C 30.2 in /  1021.9 hPa ENE 4.6 mph /  7.4 km/h 4.6 mph /  7.4 km/h 58 % 0 in /  0.0 mm
13:02 72 °F /  22.2 °C 56.5 °F /  13.6 °C 30.2 in /  1021.9 hPa NW 5.8 mph /  9.3 km/h 5.8 mph /  9.3 km/h 58 % 0 in /  0.0 mm
13:07 72.3 °F /  22.4 °C 56.7 °F /  13.7 °C 30.2 in /  1021.9 hPa ENE 4.6 mph /  7.4 km/h 4.6 mph /  7.4 km/h 58 % 0 in /  0.0 mm
13:12 73 °F /  22.8 °C 57.4 °F /  14.1 °C 30.2 in /  1021.9 hPa SSE 3.5 mph /  5.6 km/h 3.5 mph /  5.6 km/h 58 % 0 in /  0.0 mm
13:17 73 °F /  22.8 °C 56.8 °F /  13.8 °C 30.2 in /  1020.9 hPa SE 4.6 mph /  7.4 km/h 4.6 mph /  7.4 km/h 57 % 0 in /  0.0 mm
13:22 73.6 °F /  23.1 °C 57.4 °F /  14.1 °C 30.2 in /  1020.9 hPa West 5.8 mph /  9.3 km/h 5.8 mph /  9.3 km/h 57 % 0 in /  0.0 mm
13:27 75 °F /  23.9 °C 58.3 °F /  14.6 °C 30.2 in /  1020.9 hPa South 3.5 mph /  5.6 km/h 3.5 mph /  5.6 km/h 56 % 0 in /  0.0 mm
13:32 75.2 °F /  24.0 °C 57.9 °F /  14.4 °C 30.2 in /  1020.9 hPa SSW 3.8 mph /  6.1 km/h 3.8 mph /  6.1 km/h 55 % 0 in /  0.0 mm
13:37 75.7 °F /  24.3 °C 57.9 °F /  14.4 °C 30.2 in /  1020.9 hPa West 4.6 mph /  7.4 km/h 4.6 mph /  7.4 km/h 54 % 0 in /  0.0 mm
13:42 75 °F /  23.9 °C 57.2 °F /  14.0 °C 30.2 in /  1020.9 hPa WSW 5.8 mph /  9.3 km/h 5.8 mph /  9.3 km/h 54 % 0 in /  0.0 mm
13:47 74.8 °F /  23.8 °C 57.6 °F /  14.2 °C 30.1 in /  1019.9 hPa WSW 3.6 mph /  5.8 km/h 3.6 mph /  5.8 km/h 55 % 0 in /  0.0 mm
13:52 74.5 °F /  23.6 °C 56.7 °F /  13.7 °C 30.1 in /  1019.9 hPa ESE 9.2 mph /  14.8 km/h 9.2 mph /  14.8 km/h 54 % 0 in /  0.0 mm
13:57 74.3 °F /  23.5 °C 57 °F /  13.9 °C 30.1 in /  1019.9 hPa ENE 6.9 mph /  11.1 km/h 6.9 mph /  11.1 km/h 55 % 0 in /  0.0 mm
14:02 74.8 °F /  23.8 °C 57.6 °F /  14.2 °C 30.1 in /  1018.8 hPa East 6.2 mph /  10.0 km/h 6.2 mph /  10.0 km/h 55 % 0 in /  0.0 mm
14:07 74.1 °F /  23.4 °C 56.5 °F /  13.6 °C 30.1 in /  1018.8 hPa SSE 6.9 mph /  11.1 km/h 6.9 mph /  11.1 km/h 54 % 0 in /  0.0 mm
14:12 74.1 °F /  23.4 °C 56.5 °F /  13.6 °C 30.1 in /  1018.8 hPa ESE 6.9 mph /  11.1 km/h 6.9 mph /  11.1 km/h 54 % 0 in /  0.0 mm
14:17 73.6 °F /  23.1 °C 56.5 °F /  13.6 °C 30.1 in /  1019.9 hPa NE 5.8 mph /  9.3 km/h 5.8 mph /  9.3 km/h 55 % 0 in /  0.0 mm
14:22 73.6 °F /  23.1 °C 56.5 °F /  13.6 °C 30.1 in /  1019.9 hPa NNE 4.6 mph /  7.4 km/h 4.6 mph /  7.4 km/h 55 % 0 in /  0.0 mm
14:27 74.8 °F /  23.8 °C 57.6 °F /  14.2 °C 30.1 in /  1019.9 hPa East 5.9 mph /  9.5 km/h 6 mph /  9.7 km/h 55 % 0 in /  0.0 mm
14:32 75.7 °F /  24.3 °C 57.4 °F /  14.1 °C 30.1 in /  1019.9 hPa SSE 5.8 mph /  9.3 km/h 5.8 mph /  9.3 km/h 53 % 0 in /  0.0 mm
14:37 76.3 °F /  24.6 °C 57.9 °F /  14.4 °C 30.1 in /  1019.9 hPa ESE 5.8 mph /  9.3 km/h 5.8 mph /  9.3 km/h 53 % 0 in /  0.0 mm
14:42 77.2 °F /  25.1 °C 57.7 °F /  14.3 °C 30.1 in /  1019.9 hPa East 4.6 mph /  7.4 km/h 4.6 mph /  7.4 km/h 51 % 0 in /  0.0 mm
14:47 76.3 °F /  24.6 °C 57.4 °F /  14.1 °C 30.1 in /  1019.9 hPa ESE 8.5 mph /  13.7 km/h 8.5 mph /  13.7 km/h 52 % 0 in /  0.0 mm
14:52 75 °F /  23.9 °C 57.2 °F /  14.0 °C 30.1 in /  1019.9 hPa East 6.9 mph /  11.1 km/h 6.9 mph /  11.1 km/h 54 % 0 in /  0.0 mm
14:57 75.7 °F /  24.3 °C 57.4 °F /  14.1 °C 30.1 in /  1019.9 hPa ESE 6.2 mph /  10.0 km/h 6.2 mph /  10.0 km/h 53 % 0 in /  0.0 mm
15:02 75.7 °F /  24.3 °C 57.4 °F /  14.1 °C 30.1 in /  1019.9 hPa ESE 9.2 mph /  14.8 km/h 9.2 mph /  14.8 km/h 53 % 0 in /  0.0 mm
15:07 75 °F /  23.9 °C 57.7 °F /  14.3 °C 30.1 in /  1019.9 hPa ESE 10 mph /  16.1 km/h 10 mph /  16.1 km/h 55 % 0 in /  0.0 mm
15:12 74.5 °F /  23.6 °C 57.7 °F /  14.3 °C 30.1 in /  1019.9 hPa ESE 6.9 mph /  11.1 km/h 6.9 mph /  11.1 km/h 56 % 0 in /  0.0 mm
15:17 73.9 °F /  23.3 °C 57.4 °F /  14.1 °C 30.1 in /  1019.9 hPa ESE 3.5 mph /  5.6 km/h 3.5 mph /  5.6 km/h 56 % 0 in /  0.0 mm
15:22 73.6 °F /  23.1 °C 56.8 °F /  13.8 °C 30.1 in /  1019.9 hPa SSW 3.5 mph /  5.6 km/h 3.8 mph /  6.1 km/h 56 % 0 in /  0.0 mm
15:27 73.9 °F /  23.3 °C 57.7 °F /  14.3 °C 30.1 in /  1019.9 hPa SE 4.6 mph /  7.4 km/h 4.6 mph /  7.4 km/h 57 % 0 in /  0.0 mm
15:32 74.1 °F /  23.4 °C 57.4 °F /  14.1 °C 30.1 in /  1019.9 hPa South 4.6 mph /  7.4 km/h 4.6 mph /  7.4 km/h 56 % 0 in /  0.0 mm
15:37 74.7 °F /  23.7 °C 57.9 °F /  14.4 °C 30.1 in /  1019.9 hPa South 5.4 mph /  8.7 km/h 5.4 mph /  8.7 km/h 56 % 0 in /  0.0 mm
15:42 74.7 °F /  23.7 °C 57.9 °F /  14.4 °C 30.1 in /  1019.9 hPa SSW 2.3 mph /  3.7 km/h 2.6 mph /  4.2 km/h 56 % 0 in /  0.0 mm
15:47 74.1 °F /  23.4 °C 57.4 °F /  14.1 °C 30.1 in /  1019.9 hPa SSW 2 mph /  3.2 km/h 2 mph /  3.2 km/h 56 % 0 in /  0.0 mm
15:52 73.6 °F /  23.1 °C 56.8 °F /  13.8 °C 30.1 in /  1019.9 hPa SW 3.1 mph /  5.0 km/h 3.1 mph /  5.0 km/h 56 % 0 in /  0.0 mm
15:57 73.2 °F /  22.9 °C 57 °F /  13.9 °C 30.1 in /  1019.9 hPa SSE 5.8 mph /  9.3 km/h 5.8 mph /  9.3 km/h 57 % 0 in /  0.0 mm
16:02 72.7 °F /  22.6 °C 56.7 °F /  13.7 °C 30.1 in /  1019.9 hPa ESE 2.3 mph /  3.7 km/h 2.3 mph /  3.7 km/h 57 % 0 in /  0.0 mm
16:07 72.3 °F /  22.4 °C 56.7 °F /  13.7 °C 30.1 in /  1019.9 hPa SE 5.8 mph /  9.3 km/h 5.8 mph /  9.3 km/h 58 % 0 in /  0.0 mm
16:12 72.1 °F /  22.3 °C 56.5 °F /  13.6 °C 30.1 in /  1019.9 hPa SSE 3.5 mph /  5.6 km/h 4 mph /  6.4 km/h 58 % 0 in /  0.0 mm
16:17 72.1 °F /  22.3 °C 56.5 °F /  13.6 °C 30.1 in /  1019.9 hPa South 3.5 mph /  5.6 km/h 3.5 mph /  5.6 km/h 58 % 0 in /  0.0 mm
16:22 72 °F /  22.2 °C 56.8 °F /  13.8 °C 30.1 in /  1019.9 hPa SE 4.6 mph /  7.4 km/h 4.6 mph /  7.4 km/h 59 % 0 in /  0.0 mm
16:27 72 °F /  22.2 °C 57.4 °F /  14.1 °C 30.1 in /  1019.9 hPa South 3.3 mph /  5.3 km/h 3.3 mph /  5.3 km/h 60 % 0 in /  0.0 mm
16:32 71.6 °F /  22.0 °C 57 °F /  13.9 °C 30.1 in /  1019.9 hPa ESE 5.8 mph /  9.3 km/h 5.8 mph /  9.3 km/h 60 % 0 in /  0.0 mm
16:37 71.4 °F /  21.9 °C 57.4 °F /  14.1 °C 30.1 in /  1019.9 hPa SSE 4.7 mph /  7.6 km/h 4.7 mph /  7.6 km/h 61 % 0 in /  0.0 mm
16:42 71.6 °F /  22.0 °C 57.4 °F /  14.1 °C 30.1 in /  1019.9 hPa South 4.6 mph /  7.4 km/h 4.6 mph /  7.4 km/h 61 % 0 in /  0.0 mm
16:47 71.6 °F /  22.0 °C 57.4 °F /  14.1 °C 30.1 in /  1018.8 hPa SSW 3.5 mph /  5.6 km/h 3.5 mph /  5.6 km/h 61 % 0 in /  0.0 mm
16:52 71.6 °F /  22.0 °C 57.4 °F /  14.1 °C 30.1 in /  1018.8 hPa SSW 3.5 mph /  5.6 km/h 3.6 mph /  5.8 km/h 61 % 0 in /  0.0 mm
16:57 71.6 °F /  22.0 °C 57.4 °F /  14.1 °C 30.1 in /  1018.8 hPa South 6.9 mph /  11.1 km/h 6.9 mph /  11.1 km/h 61 % 0 in /  0.0 mm
17:02 71.6 °F /  22.0 °C 57.4 °F /  14.1 °C 30.1 in /  1018.8 hPa South 4.6 mph /  7.4 km/h 4.6 mph /  7.4 km/h 61 % 0 in /  0.0 mm
17:07 71.8 °F /  22.1 °C 57.6 °F /  14.2 °C 30.1 in /  1018.8 hPa SSE 6.4 mph /  10.3 km/h 6.4 mph /  10.3 km/h 61 % 0 in /  0.0 mm
17:12 72.1 °F /  22.3 °C 57.9 °F /  14.4 °C 30.1 in /  1018.8 hPa SSE 6.9 mph /  11.1 km/h 6.9 mph /  11.1 km/h 61 % 0 in /  0.0 mm
17:17 72.9 °F /  22.7 °C 58.6 °F /  14.8 °C 30.1 in /  1018.8 hPa West 3.5 mph /  5.6 km/h 3.5 mph /  5.6 km/h 61 % 0 in /  0.0 mm
17:22 73.6 °F /  23.1 °C 58.8 °F /  14.9 °C 30.1 in /  1018.8 hPa SW 2.6 mph /  4.2 km/h 2.9 mph /  4.7 km/h 60 % 0 in /  0.0 mm
17:27 73.8 °F /  23.2 °C 59 °F /  15.0 °C 30.1 in /  1018.8 hPa SW 5.9 mph /  9.5 km/h 5.9 mph /  9.5 km/h 60 % 0 in /  0.0 mm
17:32 73 °F /  22.8 °C 57.9 °F /  14.4 °C 30.1 in /  1018.8 hPa SW 3.5 mph /  5.6 km/h 3.5 mph /  5.6 km/h 59 % 0 in /  0.0 mm
17:37 72.9 °F /  22.7 °C 57.7 °F /  14.3 °C 30.1 in /  1018.8 hPa WSW 2.3 mph /  3.7 km/h   59 % 0 in /  0.0 mm
17:43 73.4 °F /  23.0 °C 58.3 °F /  14.6 °C 30.1 in /  1018.8 hPa WSW 3.5 mph /  5.6 km/h 3.5 mph /  5.6 km/h 59 % 0 in /  0.0 mm
17:48 73.6 °F /  23.1 °C 58.5 °F /  14.7 °C 30.1 in /  1018.8 hPa SW 8.1 mph /  13.0 km/h 8.1 mph /  13.0 km/h 59 % 0 in /  0.0 mm
17:53 73 °F /  22.8 °C 58.3 °F /  14.6 °C 30.1 in /  1018.8 hPa WSW 7.4 mph /  11.9 km/h 7.4 mph /  11.9 km/h 60 % 0 in /  0.0 mm
17:58 73.2 °F /  22.9 °C 58.5 °F /  14.7 °C 30.1 in /  1018.8 hPa South 5.9 mph /  9.5 km/h 5.9 mph /  9.5 km/h 60 % 0 in /  0.0 mm
18:03 73 °F /  22.8 °C 57.9 °F /  14.4 °C 30.1 in /  1018.8 hPa South 5.6 mph /  9.0 km/h 5.6 mph /  9.0 km/h 59 % 0 in /  0.0 mm
18:08 72.5 °F /  22.5 °C 57.4 °F /  14.1 °C 30.1 in /  1018.8 hPa SW 6.2 mph /  10.0 km/h 6.2 mph /  10.0 km/h 59 % 0 in /  0.0 mm
18:13 72.7 °F /  22.6 °C 57.6 °F /  14.2 °C 30.1 in /  1018.8 hPa SW 5.8 mph /  9.3 km/h 5.8 mph /  9.3 km/h 59 % 0 in /  0.0 mm
18:18 72.5 °F /  22.5 °C 57.7 °F /  14.3 °C 30.1 in /  1018.8 hPa SW 4.6 mph /  7.4 km/h 4.6 mph /  7.4 km/h 60 % 0 in /  0.0 mm
18:23 72.5 °F /  22.5 °C 57.7 °F /  14.3 °C 30.1 in /  1018.8 hPa SW 5.8 mph /  9.3 km/h 5.8 mph /  9.3 km/h 60 % 0 in /  0.0 mm
18:28 72.1 °F /  22.3 °C 57.6 °F /  14.2 °C 30.1 in /  1018.8 hPa South 4.6 mph /  7.4 km/h 4.6 mph /  7.4 km/h 60 % 0 in /  0.0 mm
18:33 72.1 °F /  22.3 °C 57.9 °F /  14.4 °C 30.1 in /  1018.8 hPa SW 3.6 mph /  5.8 km/h 3.6 mph /  5.8 km/h 61 % 0 in /  0.0 mm
18:38 72 °F /  22.2 °C 57.7 °F /  14.3 °C 30.1 in /  1018.8 hPa SW 4.6 mph /  7.4 km/h 4.6 mph /  7.4 km/h 61 % 0 in /  0.0 mm
18:43 71.4 °F /  21.9 °C 57.7 °F /  14.3 °C 30.1 in /  1018.8 hPa West 4.6 mph /  7.4 km/h 4.6 mph /  7.4 km/h 62 % 0 in /  0.0 mm
18:48 71.2 °F /  21.8 °C 57.9 °F /  14.4 °C 30.1 in /  1018.8 hPa West 3.5 mph /  5.6 km/h 3.5 mph /  5.6 km/h 63 % 0 in /  0.0 mm
18:53 70.9 °F /  21.6 °C 57.7 °F /  14.3 °C 30.1 in /  1018.8 hPa South 4.6 mph /  7.4 km/h 4.6 mph /  7.4 km/h 63 % 0 in /  0.0 mm
18:58 70.7 °F /  21.5 °C 57.6 °F /  14.2 °C 30.1 in /  1019.9 hPa SW 5.8 mph /  9.3 km/h 5.8 mph /  9.3 km/h 63 % 0 in /  0.0 mm
19:03 70.3 °F /  21.3 °C 57 °F /  13.9 °C 30.1 in /  1019.9 hPa SSE 4.6 mph /  7.4 km/h 4.6 mph /  7.4 km/h 63 % 0 in /  0.0 mm
19:08 70 °F /  21.1 °C 57.2 °F /  14.0 °C 30.1 in /  1019.9 hPa SW 2.4 mph /  3.9 km/h 2.4 mph /  3.9 km/h 64 % 0 in /  0.0 mm
19:13 69.6 °F /  20.9 °C 57.4 °F /  14.1 °C 30.1 in /  1019.9 hPa SSW 5.8 mph /  9.3 km/h 5.8 mph /  9.3 km/h 65 % 0 in /  0.0 mm
19:18 69.3 °F /  20.7 °C 57 °F /  13.9 °C 30.1 in /  1019.9 hPa ESE 4.6 mph /  7.4 km/h 4.6 mph /  7.4 km/h 65 % 0 in /  0.0 mm
19:23 68.9 °F /  20.5 °C 57 °F /  13.9 °C 30.1 in /  1019.9 hPa West 3.5 mph /  5.6 km/h 3.5 mph /  5.6 km/h 66 % 0 in /  0.0 mm
19:28 68.7 °F /  20.4 °C 56.8 °F /  13.8 °C 30.1 in /  1018.8 hPa WSW 3.5 mph /  5.6 km/h 3.5 mph /  5.6 km/h 66 % 0 in /  0.0 mm
19:33 68.4 °F /  20.2 °C 57 °F /  13.9 °C 30.1 in /  1018.8 hPa SW 2.3 mph /  3.7 km/h 2.3 mph /  3.7 km/h 67 % 0 in /  0.0 mm
19:38 68.2 °F /  20.1 °C 56.8 °F /  13.8 °C 30.1 in /  1018.8 hPa SW 2.3 mph /  3.7 km/h 2.3 mph /  3.7 km/h 67 % 0 in /  0.0 mm
19:43 68 °F /  20.0 °C 56.7 °F /  13.7 °C 30.1 in /  1019.9 hPa WSW 2 mph /  3.2 km/h 2.4 mph /  3.9 km/h 67 % 0 in /  0.0 mm
19:48 67.8 °F /  19.9 °C 56.8 °F /  13.8 °C 30.1 in /  1019.9 hPa SW 2.3 mph /  3.7 km/h 2.3 mph /  3.7 km/h 68 % 0 in /  0.0 mm
19:53 67.6 °F /  19.8 °C 57 °F /  13.9 °C 30.1 in /  1019.9 hPa SW 2.3 mph /  3.7 km/h 2.3 mph /  3.7 km/h 69 % 0 in /  0.0 mm
19:58 67.5 °F /  19.7 °C 56.8 °F /  13.8 °C 30.1 in /  1019.9 hPa SW 1.2 mph /  1.9 km/h   69 % 0 in /  0.0 mm
20:03 67.3 °F /  19.6 °C 57.2 °F /  14.0 °C 30.1 in /  1019.9 hPa Calm     70 % 0 in /  0.0 mm
20:08 67.1 °F /  19.5 °C 57 °F /  13.9 °C 30.1 in /  1019.9 hPa SW 1.6 mph /  2.6 km/h 1.6 mph /  2.6 km/h 70 % 0 in /  0.0 mm
20:18 66.7 °F /  19.3 °C 57 °F /  13.9 °C 30.1 in /  1019.9 hPa SW 1.2 mph /  1.9 km/h   71 % 0 in /  0.0 mm
20:23 66.7 °F /  19.3 °C 57 °F /  13.9 °C 30.1 in /  1019.9 hPa SW 1.2 mph /  1.9 km/h   71 % 0 in /  0.0 mm
20:28 66.6 °F /  19.2 °C 57.4 °F /  14.1 °C 30.1 in /  1018.8 hPa SW 1.2 mph /  1.9 km/h   72 % 0 in /  0.0 mm
20:33 66.6 °F /  19.2 °C 57.4 °F /  14.1 °C 30.1 in /  1018.8 hPa Calm     72 % 0 in /  0.0 mm
20:38 66.4 °F /  19.1 °C 57 °F /  13.9 °C 30.1 in /  1018.8 hPa Calm     72 % 0 in /  0.0 mm
20:43 66.2 °F /  19.0 °C 56.8 °F /  13.8 °C 30.1 in /  1019.9 hPa Calm     72 % 0 in /  0.0 mm
20:48 66.2 °F /  19.0 °C 57.4 °F /  14.1 °C 30.1 in /  1019.9 hPa Calm     73 % 0 in /  0.0 mm
20:53 66 °F /  18.9 °C 57.6 °F /  14.2 °C 30.1 in /  1019.9 hPa Calm     74 % 0 in /  0.0 mm
20:58 66 °F /  18.9 °C 57.6 °F /  14.2 °C 30.1 in /  1019.9 hPa Calm     74 % 0 in /  0.0 mm
21:03 65.8 °F /  18.8 °C 57.7 °F /  14.3 °C 30.1 in /  1019.9 hPa Calm     75 % 0 in /  0.0 mm
21:08 65.8 °F /  18.8 °C 57.7 °F /  14.3 °C 30.1 in /  1019.9 hPa Calm     75 % 0 in /  0.0 mm
21:18 65.7 °F /  18.7 °C 57.6 °F /  14.2 °C 30.1 in /  1019.9 hPa Calm     75 % 0 in /  0.0 mm
21:23 65.5 °F /  18.6 °C 57.7 °F /  14.3 °C 30.1 in /  1019.9 hPa Calm     76 % 0 in /  0.0 mm
21:28 65.3 °F /  18.5 °C 57.6 °F /  14.2 °C 30.1 in /  1019.9 hPa Calm     76 % 0 in /  0.0 mm
21:33 65.3 °F /  18.5 °C 57.6 °F /  14.2 °C 30.1 in /  1019.9 hPa Calm     76 % 0 in /  0.0 mm
21:38 65.1 °F /  18.4 °C 57.4 °F /  14.1 °C 30.1 in /  1019.9 hPa Calm     76 % 0 in /  0.0 mm
21:43 64.9 °F /  18.3 °C 57.6 °F /  14.2 °C 30.1 in /  1019.9 hPa Calm     77 % 0 in /  0.0 mm
21:48 64.9 °F /  18.3 °C 57.6 °F /  14.2 °C 30.1 in /  1019.9 hPa Calm     77 % 0 in /  0.0 mm
21:53 64.9 °F /  18.3 °C 57.6 °F /  14.2 °C 30.1 in /  1019.9 hPa Calm     77 % 0 in /  0.0 mm
21:58 64.9 °F /  18.3 °C 57.6 °F /  14.2 °C 30.1 in /  1019.9 hPa Calm     77 % 0 in /  0.0 mm
22:03 64.9 °F /  18.3 °C 57.9 °F /  14.4 °C 30.1 in /  1019.9 hPa Calm     78 % 0 in /  0.0 mm
22:08 64.9 °F /  18.3 °C 57.9 °F /  14.4 °C 30.1 in /  1019.9 hPa Calm     78 % 0 in /  0.0 mm
22:13 64.9 °F /  18.3 °C 57.9 °F /  14.4 °C 30.1 in /  1019.9 hPa Calm     78 % 0 in /  0.0 mm
22:18 64.8 °F /  18.2 °C 57.7 °F /  14.3 °C 30.1 in /  1019.9 hPa Calm     78 % 0 in /  0.0 mm
22:23 64.8 °F /  18.2 °C 57.7 °F /  14.3 °C 30.1 in /  1019.9 hPa Calm     78 % 0 in /  0.0 mm
22:28 64.9 °F /  18.3 °C 57.9 °F /  14.4 °C 30.2 in /  1020.9 hPa Calm     78 % 0 in /  0.0 mm
22:33 64.8 °F /  18.2 °C 57.7 °F /  14.3 °C 30.2 in /  1020.9 hPa Calm     78 % 0 in /  0.0 mm
22:38 64.8 °F /  18.2 °C 58.1 °F /  14.5 °C 30.2 in /  1020.9 hPa Calm     79 % 0 in /  0.0 mm
22:43 64.8 °F /  18.2 °C 58.1 °F /  14.5 °C 30.1 in /  1019.9 hPa Calm     79 % 0 in /  0.0 mm
22:48 64.8 °F /  18.2 °C 58.1 °F /  14.5 °C 30.1 in /  1019.9 hPa Calm     79 % 0 in /  0.0 mm
22:53 64.8 °F /  18.2 °C 58.1 °F /  14.5 °C 30.1 in /  1019.9 hPa Calm     79 % 0 in /  0.0 mm
22:58 64.8 °F /  18.2 °C 57.7 °F /  14.3 °C 30.1 in /  1019.9 hPa Calm     78 % 0 in /  0.0 mm
23:03 64.6 °F /  18.1 °C 57.6 °F /  14.2 °C 30.1 in /  1019.9 hPa Calm     78 % 0 in /  0.0 mm
23:08 64.6 °F /  18.1 °C 57.6 °F /  14.2 °C 30.1 in /  1019.9 hPa Calm     78 % 0 in /  0.0 mm
23:13 64.6 °F /  18.1 °C 57.6 °F /  14.2 °C 30.1 in /  1019.9 hPa Calm     78 % 0 in /  0.0 mm
23:23 64.4 °F /  18.0 °C 57.7 °F /  14.3 °C 30.1 in /  1019.9 hPa Calm     79 % 0 in /  0.0 mm
23:28 64.4 °F /  18.0 °C 57.7 °F /  14.3 °C 30.1 in /  1019.9 hPa Calm     79 % 0 in /  0.0 mm
23:33 64.4 °F /  18.0 °C 57.7 °F /  14.3 °C 30.1 in /  1019.9 hPa Calm     79 % 0 in /  0.0 mm
23:38 64.4 °F /  18.0 °C 57.7 °F /  14.3 °C 30.1 in /  1019.9 hPa Calm     79 % 0 in /  0.0 mm
23:43 64.4 °F /  18.0 °C 57.7 °F /  14.3 °C 30.1 in /  1019.9 hPa East 1.2 mph /  1.9 km/h   79 % 0 in /  0.0 mm
23:48 64.4 °F /  18.0 °C 58.1 °F /  14.5 °C 30.1 in /  1019.9 hPa East 1.4 mph /  2.3 km/h 1.4 mph /  2.3 km/h 80 % 0 in /  0.0 mm
23:54 64 °F /  17.8 °C 57.4 °F /  14.1 °C 30.1 in /  1019.9 hPa Calm     79 % 0 in /  0.0 mm
23:59 64 °F /  17.8 °C 57.7 °F /  14.3 °C 30.1 in /  1019.9 hPa SSE 2.3 mph /  3.7 km/h 2.3 mph /  3.7 km/h 80 % 0 in /  0.0 mm
Meteo Sesrovires
Elogis d' Weather Underground - 4 mb

Guio original per  Jim McMurry - jmcmurry@mwt.net Adaptat per a la plantilla per  Wim van der Kuil - Leuven-Template.eu

Trobareu la nostra informacio del temps tambe a:

Weather Underground

AWEKAS